Impacts TAF Board
For situational awareness. Not to be used for flight planning purposes.
IDs:

KMIA - Miami Intl, FL, US

Issued at 2323 UTC 22 Mar 2019
Updated at 0031 UTC 23 Mar 2019
Potential Impact None Slight Moderate High
Time2353Z 23/01Z 23/02Z 23/03Z 23/04Z 23/05Z 23/06Z 23/07Z 23/08Z 23/09Z 23/10Z 23/11Z 23/12Z 23/13Z>>
Type OBS PRVL PRVL PRVL PRVL PRVL PRVL PRVL PRVL PRVL PRVL PRVL PRVL PRVL
VIS 10 >6 >6 >6 >6 >6 >6 >6 >6 >6 >6 >6 >6 >6
CIG -- -- -- -- -- -- -- -- -- -- -- -- -- --
Cover FEW SKC SKC SKC SKC SKC SKC SKC SKC SKC SKC SKC SKC SKC
FltCat VFR VFR VFR VFR VFR VFR VFR VFR VFR VFR VFR VFR VFR VFR
WX -- -- -- -- -- -- -- -- -- -- -- -- -- --
WDir VRB VRB VRB VRB VRB VRB VRB VRB VRB VRB VRB VRB VRB VRB
WSpd 0 3 3 3 3 3 3 3 3 3 3 3 3 3
WGst -- -- -- -- -- -- -- -- -- -- -- -- -- --
Raw TAF
KMIA 222323Z 2300/2406 VRB03KT P6SM SKC
  FM231500 04007KT P6SM SKC
  FM231700 09011KT P6SM SKC
  FM232300 09007KT P6SM SKC


Raw METAR
KMIA 222353Z 00000KT 10SM FEW055 21/05 A3007 RMK AO2 SLP183 T02110050 10239 20211 53008 $
KMIA 222253Z 29004KT 10SM FEW060 22/05 A3006 RMK AO2 SLP178 T02220050 $
KMIA 222153Z 30007KT 10SM CLR 23/04 A3005 RMK AO2 SLP175 T02330039 $

METAR Board
Radar Display
Forecast Discussion
For situational awareness. Not to be used for flight planning purposes.